sensor_id;sensor_type;location;lat;lon;timestamp;P1;durP1;ratioP1;P2;durP2;ratioP2
38513;SDS011;24282;48.400;10.808;2023-07-22T00:01:18;1.10;;;1.00;;
38513;SDS011;24282;48.400;10.808;2023-07-22T00:03:44;1.10;;;0.90;;
38513;SDS011;24282;48.400;10.808;2023-07-22T00:06:10;2.20;;;1.35;;
38513;SDS011;24282;48.400;10.808;2023-07-22T00:08:37;2.00;;;1.10;;
38513;SDS011;24282;48.400;10.808;2023-07-22T00:11:06;1.35;;;1.10;;
38513;SDS011;24282;48.400;10.808;2023-07-22T00:13:33;1.30;;;1.17;;
38513;SDS011;24282;48.400;10.808;2023-07-22T00:15:59;1.75;;;1.35;;
38513;SDS011;24282;48.400;10.808;2023-07-22T00:18:26;1.02;;;0.90;;
38513;SDS011;24282;48.400;10.808;2023-07-22T00:20:53;1.70;;;0.95;;
38513;SDS011;24282;48.400;10.808;2023-07-22T00:23:20;1.27;;;1.00;;
38513;SDS011;24282;48.400;10.808;2023-07-22T00:25:46;2.35;;;1.20;;
38513;SDS011;24282;48.400;10.808;2023-07-22T00:28:12;1.50;;;0.90;;
38513;SDS011;24282;48.400;10.808;2023-07-22T00:30:38;1.40;;;1.10;;
38513;SDS011;24282;48.400;10.808;2023-07-22T00:33:04;0.98;;;0.70;;
38513;SDS011;24282;48.400;10.808;2023-07-22T00:35:31;1.20;;;1.00;;
38513;SDS011;24282;48.400;10.808;2023-07-22T00:37:57;2.05;;;1.33;;
38513;SDS011;24282;48.400;10.808;2023-07-22T00:40:23;1.30;;;1.20;;
38513;SDS011;24282;48.400;10.808;2023-07-22T00:42:49;1.30;;;1.00;;
38513;SDS011;24282;48.400;10.808;2023-07-22T00:45:15;2.55;;;1.25;;
38513;SDS011;24282;48.400;10.808;2023-07-22T00:47:41;1.45;;;1.02;;
38513;SDS011;24282;48.400;10.808;2023-07-22T00:50:07;1.58;;;1.30;;
38513;SDS011;24282;48.400;10.808;2023-07-22T00:52:33;1.65;;;1.10;;
38513;SDS011;24282;48.400;10.808;2023-07-22T00:54:59;1.90;;;1.30;;
38513;SDS011;24282;48.400;10.808;2023-07-22T00:57:27;1.02;;;0.80;;
38513;SDS011;24282;48.400;10.808;2023-07-22T00:59:53;1.77;;;1.17;;
38513;SDS011;24282;48.400;10.808;2023-07-22T01:02:21;1.90;;;0.95;;
38513;SDS011;24282;48.400;10.808;2023-07-22T01:04:47;2.20;;;1.27;;
38513;SDS011;24282;48.400;10.808;2023-07-22T01:07:19;1.48;;;0.98;;
38513;SDS011;24282;48.400;10.808;2023-07-22T01:09:45;2.13;;;1.00;;
38513;SDS011;24282;48.400;10.808;2023-07-22T01:12:11;2.40;;;1.02;;
38513;SDS011;24282;48.400;10.808;2023-07-22T01:14:38;2.75;;;1.42;;
38513;SDS011;24282;48.400;10.808;2023-07-22T01:17:06;1.83;;;1.35;;
38513;SDS011;24282;48.400;10.808;2023-07-22T01:19:34;1.52;;;1.00;;
38513;SDS011;24282;48.400;10.808;2023-07-22T01:22:01;1.63;;;1.10;;
38513;SDS011;24282;48.400;10.808;2023-07-22T01:24:28;1.83;;;1.45;;
38513;SDS011;24282;48.400;10.808;2023-07-22T01:26:55;1.63;;;0.93;;
38513;SDS011;24282;48.400;10.808;2023-07-22T01:29:21;1.90;;;1.30;;
38513;SDS011;24282;48.400;10.808;2023-07-22T01:31:49;1.65;;;1.30;;
38513;SDS011;24282;48.400;10.808;2023-07-22T01:34:16;1.60;;;0.98;;
38513;SDS011;24282;48.400;10.808;2023-07-22T01:36:42;1.40;;;1.08;;
38513;SDS011;24282;48.400;10.808;2023-07-22T01:39:08;1.80;;;1.10;;
38513;SDS011;24282;48.400;10.808;2023-07-22T01:41:36;2.17;;;1.20;;
38513;SDS011;24282;48.400;10.808;2023-07-22T01:44:02;1.52;;;1.00;;
38513;SDS011;24282;48.400;10.808;2023-07-22T01:46:28;2.08;;;1.20;;
38513;SDS011;24282;48.400;10.808;2023-07-22T01:48:55;2.88;;;2.22;;
38513;SDS011;24282;48.400;10.808;2023-07-22T01:51:21;3.22;;;2.45;;
38513;SDS011;24282;48.400;10.808;2023-07-22T01:53:47;2.40;;;1.80;;
38513;SDS011;24282;48.400;10.808;2023-07-22T01:56:13;2.30;;;1.55;;
38513;SDS011;24282;48.400;10.808;2023-07-22T01:58:39;1.65;;;1.20;;
38513;SDS011;24282;48.400;10.808;2023-07-22T02:01:04;1.63;;;1.45;;
38513;SDS011;24282;48.400;10.808;2023-07-22T02:03:30;1.42;;;1.13;;
38513;SDS011;24282;48.400;10.808;2023-07-22T02:06:03;1.75;;;1.30;;
38513;SDS011;24282;48.400;10.808;2023-07-22T02:08:29;1.67;;;1.40;;
38513;SDS011;24282;48.400;10.808;2023-07-22T02:11:00;2.15;;;1.30;;
38513;SDS011;24282;48.400;10.808;2023-07-22T02:13:28;2.38;;;1.38;;
38513;SDS011;24282;48.400;10.808;2023-07-22T02:15:53;1.90;;;1.10;;
38513;SDS011;24282;48.400;10.808;2023-07-22T02:18:19;1.77;;;1.20;;
38513;SDS011;24282;48.400;10.808;2023-07-22T02:20:45;1.65;;;1.17;;
38513;SDS011;24282;48.400;10.808;2023-07-22T02:23:11;2.20;;;1.45;;
38513;SDS011;24282;48.400;10.808;2023-07-22T02:25:36;1.80;;;1.40;;
38513;SDS011;24282;48.400;10.808;2023-07-22T02:28:02;2.53;;;1.58;;
38513;SDS011;24282;48.400;10.808;2023-07-22T02:30:28;1.90;;;1.65;;
38513;SDS011;24282;48.400;10.808;2023-07-22T02:32:54;1.95;;;1.20;;
38513;SDS011;24282;48.400;10.808;2023-07-22T02:35:20;2.20;;;1.50;;
38513;SDS011;24282;48.400;10.808;2023-07-22T02:37:45;2.40;;;1.40;;
38513;SDS011;24282;48.400;10.808;2023-07-22T02:40:11;1.52;;;1.30;;
38513;SDS011;24282;48.400;10.808;2023-07-22T02:42:37;2.03;;;1.38;;
38513;SDS011;24282;48.400;10.808;2023-07-22T02:45:04;5.45;;;1.95;;
38513;SDS011;24282;48.400;10.808;2023-07-22T02:47:32;2.40;;;1.73;;
38513;SDS011;24282;48.400;10.808;2023-07-22T02:49:57;3.85;;;1.60;;
38513;SDS011;24282;48.400;10.808;2023-07-22T02:52:23;2.25;;;1.70;;
38513;SDS011;24282;48.400;10.808;2023-07-22T02:55:09;1.52;;;1.40;;
38513;SDS011;24282;48.400;10.808;2023-07-22T02:57:44;2.40;;;1.98;;
38513;SDS011;24282;48.400;10.808;2023-07-22T03:00:12;2.20;;;1.63;;
38513;SDS011;24282;48.400;10.808;2023-07-22T03:02:42;3.00;;;1.60;;
38513;SDS011;24282;48.400;10.808;2023-07-22T03:05:08;3.85;;;1.55;;
38513;SDS011;24282;48.400;10.808;2023-07-22T03:07:35;2.63;;;1.50;;
38513;SDS011;24282;48.400;10.808;2023-07-22T03:10:02;2.78;;;1.75;;
38513;SDS011;24282;48.400;10.808;2023-07-22T03:12:28;2.33;;;1.73;;
38513;SDS011;24282;48.400;10.808;2023-07-22T03:14:54;2.25;;;1.48;;
38513;SDS011;24282;48.400;10.808;2023-07-22T03:17:20;2.90;;;1.65;;
38513;SDS011;24282;48.400;10.808;2023-07-22T03:19:46;1.50;;;1.30;;
38513;SDS011;24282;48.400;10.808;2023-07-22T03:22:15;1.98;;;1.45;;
38513;SDS011;24282;48.400;10.808;2023-07-22T03:24:44;2.38;;;1.40;;
38513;SDS011;24282;48.400;10.808;2023-07-22T03:27:11;2.63;;;1.70;;
38513;SDS011;24282;48.400;10.808;2023-07-22T03:29:37;2.20;;;1.52;;
38513;SDS011;24282;48.400;10.808;2023-07-22T03:32:04;1.85;;;1.50;;
38513;SDS011;24282;48.400;10.808;2023-07-22T03:34:30;3.33;;;1.42;;
38513;SDS011;24282;48.400;10.808;2023-07-22T03:36:56;1.95;;;1.50;;
38513;SDS011;24282;48.400;10.808;2023-07-22T03:39:23;2.17;;;1.58;;
38513;SDS011;24282;48.400;10.808;2023-07-22T03:41:50;1.65;;;1.55;;
38513;SDS011;24282;48.400;10.808;2023-07-22T03:44:15;1.58;;;1.38;;
38513;SDS011;24282;48.400;10.808;2023-07-22T03:46:41;1.33;;;1.05;;
38513;SDS011;24282;48.400;10.808;2023-07-22T03:49:07;1.50;;;1.27;;
38513;SDS011;24282;48.400;10.808;2023-07-22T03:51:33;2.25;;;1.58;;
38513;SDS011;24282;48.400;10.808;2023-07-22T03:53:59;2.90;;;1.88;;
38513;SDS011;24282;48.400;10.808;2023-07-22T03:56:25;3.00;;;1.92;;
38513;SDS011;24282;48.400;10.808;2023-07-22T03:58:51;2.58;;;2.00;;
38513;SDS011;24282;48.400;10.808;2023-07-22T04:01:18;2.40;;;1.73;;
38513;SDS011;24282;48.400;10.808;2023-07-22T04:03:44;1.80;;;1.50;;
38513;SDS011;24282;48.400;10.808;2023-07-22T04:06:10;1.73;;;1.20;;
38513;SDS011;24282;48.400;10.808;2023-07-22T04:08:36;3.03;;;1.85;;
38513;SDS011;24282;48.400;10.808;2023-07-22T04:11:02;1.92;;;1.52;;
38513;SDS011;24282;48.400;10.808;2023-07-22T04:13:28;2.60;;;1.40;;
38513;SDS011;24282;48.400;10.808;2023-07-22T04:15:54;2.38;;;1.48;;
38513;SDS011;24282;48.400;10.808;2023-07-22T04:18:20;2.65;;;1.95;;
38513;SDS011;24282;48.400;10.808;2023-07-22T04:20:46;4.82;;;3.85;;
38513;SDS011;24282;48.400;10.808;2023-07-22T04:23:16;3.70;;;2.55;;
38513;SDS011;24282;48.400;10.808;2023-07-22T04:25:44;2.33;;;1.67;;
38513;SDS011;24282;48.400;10.808;2023-07-22T04:28:10;2.60;;;1.83;;
38513;SDS011;24282;48.400;10.808;2023-07-22T04:30:36;1.73;;;1.55;;
38513;SDS011;24282;48.400;10.808;2023-07-22T04:33:05;1.70;;;1.60;;
38513;SDS011;24282;48.400;10.808;2023-07-22T04:35:31;1.92;;;1.60;;
38513;SDS011;24282;48.400;10.808;2023-07-22T04:37:58;1.50;;;1.33;;
38513;SDS011;24282;48.400;10.808;2023-07-22T04:40:24;2.15;;;1.60;;
38513;SDS011;24282;48.400;10.808;2023-07-22T04:42:50;4.20;;;1.83;;
38513;SDS011;24282;48.400;10.808;2023-07-22T04:45:16;2.33;;;1.88;;
38513;SDS011;24282;48.400;10.808;2023-07-22T04:47:45;2.67;;;1.65;;
38513;SDS011;24282;48.400;10.808;2023-07-22T04:50:12;1.55;;;1.23;;
38513;SDS011;24282;48.400;10.808;2023-07-22T04:52:39;2.15;;;1.83;;
38513;SDS011;24282;48.400;10.808;2023-07-22T04:55:07;3.03;;;2.22;;
38513;SDS011;24282;48.400;10.808;2023-07-22T04:57:36;3.10;;;1.55;;
38513;SDS011;24282;48.400;10.808;2023-07-22T05:00:03;2.83;;;1.60;;
38513;SDS011;24282;48.400;10.808;2023-07-22T05:02:30;2.00;;;1.80;;
38513;SDS011;24282;48.400;10.808;2023-07-22T05:04:56;2.13;;;1.65;;
38513;SDS011;24282;48.400;10.808;2023-07-22T05:07:22;2.40;;;1.80;;
38513;SDS011;24282;48.400;10.808;2023-07-22T05:09:48;2.55;;;1.73;;
38513;SDS011;24282;48.400;10.808;2023-07-22T05:12:14;5.00;;;1.90;;
38513;SDS011;24282;48.400;10.808;2023-07-22T05:14:40;3.33;;;2.13;;
38513;SDS011;24282;48.400;10.808;2023-07-22T05:17:05;2.33;;;1.83;;
38513;SDS011;24282;48.400;10.808;2023-07-22T05:19:31;3.80;;;2.00;;
38513;SDS011;24282;48.400;10.808;2023-07-22T05:21:57;2.40;;;1.75;;
38513;SDS011;24282;48.400;10.808;2023-07-22T05:24:23;2.22;;;1.80;;
38513;SDS011;24282;48.400;10.808;2023-07-22T05:26:48;2.70;;;1.90;;
38513;SDS011;24282;48.400;10.808;2023-07-22T05:29:14;4.63;;;2.45;;
38513;SDS011;24282;48.400;10.808;2023-07-22T05:31:41;2.65;;;2.10;;
38513;SDS011;24282;48.400;10.808;2023-07-22T05:34:07;2.25;;;1.77;;
38513;SDS011;24282;48.400;10.808;2023-07-22T05:36:33;2.22;;;1.83;;
38513;SDS011;24282;48.400;10.808;2023-07-22T05:38:58;2.60;;;2.10;;
38513;SDS011;24282;48.400;10.808;2023-07-22T05:41:25;2.10;;;1.70;;
38513;SDS011;24282;48.400;10.808;2023-07-22T05:43:51;2.65;;;1.77;;
38513;SDS011;24282;48.400;10.808;2023-07-22T05:46:17;2.15;;;1.73;;
38513;SDS011;24282;48.400;10.808;2023-07-22T05:48:42;3.53;;;1.33;;
38513;SDS011;24282;48.400;10.808;2023-07-22T05:51:09;2.47;;;1.75;;
38513;SDS011;24282;48.400;10.808;2023-07-22T05:53:35;2.22;;;1.55;;
38513;SDS011;24282;48.400;10.808;2023-07-22T05:56:00;2.55;;;1.80;;
38513;SDS011;24282;48.400;10.808;2023-07-22T05:58:26;1.80;;;1.60;;
38513;SDS011;24282;48.400;10.808;2023-07-22T06:00:53;2.25;;;1.80;;
38513;SDS011;24282;48.400;10.808;2023-07-22T06:03:19;4.68;;;3.33;;
38513;SDS011;24282;48.400;10.808;2023-07-22T06:05:46;3.97;;;3.08;;
38513;SDS011;24282;48.400;10.808;2023-07-22T06:08:12;4.32;;;2.78;;
38513;SDS011;24282;48.400;10.808;2023-07-22T06:10:37;2.30;;;1.70;;
38513;SDS011;24282;48.400;10.808;2023-07-22T06:13:05;3.15;;;2.17;;
38513;SDS011;24282;48.400;10.808;2023-07-22T06:15:30;2.45;;;1.42;;
38513;SDS011;24282;48.400;10.808;2023-07-22T06:17:56;1.95;;;1.38;;
38513;SDS011;24282;48.400;10.808;2023-07-22T06:20:22;1.50;;;1.20;;
38513;SDS011;24282;48.400;10.808;2023-07-22T06:22:48;2.25;;;1.42;;
38513;SDS011;24282;48.400;10.808;2023-07-22T06:25:13;2.75;;;1.25;;
38513;SDS011;24282;48.400;10.808;2023-07-22T06:27:39;2.25;;;1.30;;
38513;SDS011;24282;48.400;10.808;2023-07-22T06:30:05;2.03;;;1.17;;
38513;SDS011;24282;48.400;10.808;2023-07-22T06:32:31;1.92;;;1.50;;
38513;SDS011;24282;48.400;10.808;2023-07-22T06:34:57;1.80;;;1.10;;
38513;SDS011;24282;48.400;10.808;2023-07-22T06:37:23;2.00;;;1.38;;
38513;SDS011;24282;48.400;10.808;2023-07-22T06:39:50;1.58;;;1.00;;
38513;SDS011;24282;48.400;10.808;2023-07-22T06:42:15;1.42;;;1.05;;
38513;SDS011;24282;48.400;10.808;2023-07-22T06:44:42;1.63;;;1.10;;
38513;SDS011;24282;48.400;10.808;2023-07-22T06:47:08;2.75;;;1.55;;
38513;SDS011;24282;48.400;10.808;2023-07-22T06:49:34;1.50;;;1.27;;
38513;SDS011;24282;48.400;10.808;2023-07-22T06:51:59;1.70;;;1.38;;
38513;SDS011;24282;48.400;10.808;2023-07-22T06:54:26;2.28;;;1.50;;
38513;SDS011;24282;48.400;10.808;2023-07-22T06:56:52;2.45;;;1.42;;
38513;SDS011;24282;48.400;10.808;2023-07-22T06:59:18;2.83;;;1.90;;
38513;SDS011;24282;48.400;10.808;2023-07-22T07:01:44;2.00;;;1.30;;
38513;SDS011;24282;48.400;10.808;2023-07-22T07:04:09;1.77;;;1.38;;
38513;SDS011;24282;48.400;10.808;2023-07-22T07:06:35;1.92;;;1.48;;
38513;SDS011;24282;48.400;10.808;2023-07-22T07:09:03;3.13;;;1.23;;
38513;SDS011;24282;48.400;10.808;2023-07-22T07:11:30;2.35;;;1.67;;
38513;SDS011;24282;48.400;10.808;2023-07-22T07:13:57;3.13;;;1.60;;
38513;SDS011;24282;48.400;10.808;2023-07-22T07:16:27;2.25;;;1.58;;
38513;SDS011;24282;48.400;10.808;2023-07-22T07:18:53;2.35;;;1.50;;
38513;SDS011;24282;48.400;10.808;2023-07-22T07:21:20;1.98;;;1.38;;
38513;SDS011;24282;48.400;10.808;2023-07-22T07:23:46;1.77;;;1.27;;
38513;SDS011;24282;48.400;10.808;2023-07-22T07:26:12;2.38;;;1.08;;
38513;SDS011;24282;48.400;10.808;2023-07-22T07:28:38;1.63;;;1.10;;
38513;SDS011;24282;48.400;10.808;2023-07-22T07:31:04;2.28;;;1.15;;
38513;SDS011;24282;48.400;10.808;2023-07-22T07:33:30;1.42;;;0.88;;
38513;SDS011;24282;48.400;10.808;2023-07-22T07:35:56;2.35;;;1.20;;
38513;SDS011;24282;48.400;10.808;2023-07-22T07:38:22;2.15;;;1.08;;
38513;SDS011;24282;48.400;10.808;2023-07-22T07:40:57;1.75;;;1.00;;
38513;SDS011;24282;48.400;10.808;2023-07-22T07:43:24;0.93;;;0.82;;
38513;SDS011;24282;48.400;10.808;2023-07-22T07:46:11;1.50;;;1.00;;
38513;SDS011;24282;48.400;10.808;2023-07-22T07:48:53;1.50;;;1.00;;
38513;SDS011;24282;48.400;10.808;2023-07-22T07:51:24;1.15;;;0.90;;
38513;SDS011;24282;48.400;10.808;2023-07-22T07:53:54;1.30;;;1.10;;
38513;SDS011;24282;48.400;10.808;2023-07-22T07:56:21;2.45;;;1.30;;
38513;SDS011;24282;48.400;10.808;2023-07-22T07:58:48;1.70;;;0.80;;
38513;SDS011;24282;48.400;10.808;2023-07-22T08:01:15;1.65;;;1.00;;
38513;SDS011;24282;48.400;10.808;2023-07-22T08:03:42;1.00;;;0.85;;
38513;SDS011;24282;48.400;10.808;2023-07-22T08:06:08;2.67;;;1.40;;
38513;SDS011;24282;48.400;10.808;2023-07-22T08:08:35;0.93;;;0.80;;
38513;SDS011;24282;48.400;10.808;2023-07-22T08:13:32;2.15;;;0.90;;
38513;SDS011;24282;48.400;10.808;2023-07-22T08:15:59;1.35;;;0.90;;
38513;SDS011;24282;48.400;10.808;2023-07-22T08:18:29;1.60;;;0.95;;
38513;SDS011;24282;48.400;10.808;2023-07-22T08:20:55;1.10;;;0.90;;
38513;SDS011;24282;48.400;10.808;2023-07-22T08:23:21;0.95;;;0.80;;
38513;SDS011;24282;48.400;10.808;2023-07-22T08:25:48;1.65;;;1.13;;
38513;SDS011;24282;48.400;10.808;2023-07-22T08:28:14;3.70;;;1.10;;
38513;SDS011;24282;48.400;10.808;2023-07-22T08:30:40;0.90;;;0.70;;
38513;SDS011;24282;48.400;10.808;2023-07-22T08:33:07;1.88;;;0.88;;
38513;SDS011;24282;48.400;10.808;2023-07-22T08:35:34;2.10;;;1.05;;
38513;SDS011;24282;48.400;10.808;2023-07-22T08:38:01;1.52;;;0.95;;
38513;SDS011;24282;48.400;10.808;2023-07-22T08:40:27;3.50;;;0.93;;
38513;SDS011;24282;48.400;10.808;2023-07-22T08:43:02;2.00;;;1.10;;
38513;SDS011;24282;48.400;10.808;2023-07-22T08:45:30;0.65;;;0.60;;
38513;SDS011;24282;48.400;10.808;2023-07-22T08:47:58;1.88;;;1.08;;
38513;SDS011;24282;48.400;10.808;2023-07-22T08:50:26;2.67;;;1.67;;
38513;SDS011;24282;48.400;10.808;2023-07-22T08:52:55;1.77;;;1.20;;
38513;SDS011;24282;48.400;10.808;2023-07-22T08:55:23;1.10;;;0.70;;
38513;SDS011;24282;48.400;10.808;2023-07-22T08:57:48;1.45;;;0.80;;
38513;SDS011;24282;48.400;10.808;2023-07-22T09:00:16;1.15;;;0.70;;
38513;SDS011;24282;48.400;10.808;2023-07-22T09:02:43;0.60;;;0.57;;
38513;SDS011;24282;48.400;10.808;2023-07-22T09:05:10;0.65;;;0.60;;
38513;SDS011;24282;48.400;10.808;2023-07-22T09:07:37;1.35;;;0.93;;
38513;SDS011;24282;48.400;10.808;2023-07-22T09:10:04;2.08;;;0.73;;
38513;SDS011;24282;48.400;10.808;2023-07-22T09:12:33;1.27;;;0.85;;
38513;SDS011;24282;48.400;10.808;2023-07-22T09:17:38;1.85;;;0.80;;
38513;SDS011;24282;48.400;10.808;2023-07-22T09:20:05;0.90;;;0.70;;
38513;SDS011;24282;48.400;10.808;2023-07-22T09:22:32;1.45;;;0.80;;
38513;SDS011;24282;48.400;10.808;2023-07-22T09:25:19;1.15;;;0.90;;
38513;SDS011;24282;48.400;10.808;2023-07-22T09:27:44;0.95;;;0.63;;
38513;SDS011;24282;48.400;10.808;2023-07-22T09:30:27;1.17;;;0.80;;
38513;SDS011;24282;48.400;10.808;2023-07-22T09:32:59;1.15;;;0.70;;
38513;SDS011;24282;48.400;10.808;2023-07-22T09:35:30;0.82;;;0.80;;
38513;SDS011;24282;48.400;10.808;2023-07-22T09:38:15;1.48;;;0.95;;
38513;SDS011;24282;48.400;10.808;2023-07-22T09:40:51;1.23;;;0.80;;
38513;SDS011;24282;48.400;10.808;2023-07-22T09:43:17;0.70;;;0.60;;
38513;SDS011;24282;48.400;10.808;2023-07-22T09:45:46;0.95;;;0.80;;
38513;SDS011;24282;48.400;10.808;2023-07-22T09:48:13;1.05;;;0.60;;
38513;SDS011;24282;48.400;10.808;2023-07-22T09:50:39;0.98;;;0.70;;
38513;SDS011;24282;48.400;10.808;2023-07-22T09:53:05;1.20;;;0.80;;
38513;SDS011;24282;48.400;10.808;2023-07-22T09:55:32;1.75;;;1.00;;
38513;SDS011;24282;48.400;10.808;2023-07-22T09:57:59;0.65;;;0.60;;
38513;SDS011;24282;48.400;10.808;2023-07-22T10:00:30;1.00;;;0.73;;
38513;SDS011;24282;48.400;10.808;2023-07-22T10:02:58;0.88;;;0.65;;
38513;SDS011;24282;48.400;10.808;2023-07-22T10:05:26;1.08;;;0.70;;
38513;SDS011;24282;48.400;10.808;2023-07-22T10:07:57;2.30;;;0.68;;
38513;SDS011;24282;48.400;10.808;2023-07-22T10:10:34;2.28;;;0.90;;
38513;SDS011;24282;48.400;10.808;2023-07-22T10:13:02;0.80;;;0.60;;
38513;SDS011;24282;48.400;10.808;2023-07-22T10:15:29;1.42;;;0.70;;
38513;SDS011;24282;48.400;10.808;2023-07-22T10:17:56;1.10;;;0.70;;
38513;SDS011;24282;48.400;10.808;2023-07-22T10:20:23;1.58;;;1.00;;
38513;SDS011;24282;48.400;10.808;2023-07-22T10:22:49;1.05;;;0.70;;
38513;SDS011;24282;48.400;10.808;2023-07-22T10:25:16;1.45;;;0.82;;
38513;SDS011;24282;48.400;10.808;2023-07-22T10:27:43;0.88;;;0.60;;
38513;SDS011;24282;48.400;10.808;2023-07-22T10:30:10;1.00;;;0.60;;
38513;SDS011;24282;48.400;10.808;2023-07-22T10:35:04;1.08;;;0.73;;
38513;SDS011;24282;48.400;10.808;2023-07-22T10:37:35;1.63;;;1.13;;
38513;SDS011;24282;48.400;10.808;2023-07-22T10:42:52;1.60;;;0.88;;
38513;SDS011;24282;48.400;10.808;2023-07-22T10:45:32;1.05;;;0.70;;
38513;SDS011;24282;48.400;10.808;2023-07-22T10:48:11;1.00;;;0.90;;
38513;SDS011;24282;48.400;10.808;2023-07-22T10:51:04;0.95;;;0.73;;
38513;SDS011;24282;48.400;10.808;2023-07-22T10:53:29;0.70;;;0.70;;
38513;SDS011;24282;48.400;10.808;2023-07-22T11:04:43;1.15;;;0.80;;
38513;SDS011;24282;48.400;10.808;2023-07-22T11:06:57;1.88;;;0.80;;
38513;SDS011;24282;48.400;10.808;2023-07-22T11:11:53;1.77;;;0.80;;
38513;SDS011;24282;48.400;10.808;2023-07-22T11:14:50;0.90;;;0.85;;
38513;SDS011;24282;48.400;10.808;2023-07-22T11:17:28;0.95;;;0.70;;
38513;SDS011;24282;48.400;10.808;2023-07-22T11:19:56;0.80;;;0.60;;
38513;SDS011;24282;48.400;10.808;2023-07-22T11:22:25;1.33;;;0.70;;
38513;SDS011;24282;48.400;10.808;2023-07-22T11:24:54;0.75;;;0.50;;
38513;SDS011;24282;48.400;10.808;2023-07-22T11:27:20;1.20;;;0.60;;
38513;SDS011;24282;48.400;10.808;2023-07-22T11:29:48;1.45;;;0.88;;
38513;SDS011;24282;48.400;10.808;2023-07-22T11:32:15;1.38;;;0.93;;
38513;SDS011;24282;48.400;10.808;2023-07-22T11:34:46;0.73;;;0.70;;
38513;SDS011;24282;48.400;10.808;2023-07-22T11:37:12;1.40;;;0.88;;
38513;SDS011;24282;48.400;10.808;2023-07-22T11:39:39;1.08;;;0.82;;
38513;SDS011;24282;48.400;10.808;2023-07-22T11:42:06;1.10;;;0.93;;
38513;SDS011;24282;48.400;10.808;2023-07-22T11:44:32;1.00;;;0.80;;
38513;SDS011;24282;48.400;10.808;2023-07-22T11:49:35;2.72;;;0.75;;
38513;SDS011;24282;48.400;10.808;2023-07-22T11:52:15;0.60;;;0.60;;
38513;SDS011;24282;48.400;10.808;2023-07-22T11:54:44;1.70;;;0.80;;
38513;SDS011;24282;48.400;10.808;2023-07-22T11:57:22;1.02;;;0.80;;
38513;SDS011;24282;48.400;10.808;2023-07-22T12:02:19;1.10;;;0.90;;
38513;SDS011;24282;48.400;10.808;2023-07-22T12:05:01;1.48;;;1.05;;
38513;SDS011;24282;48.400;10.808;2023-07-22T12:07:28;1.35;;;0.80;;
38513;SDS011;24282;48.400;10.808;2023-07-22T12:10:04;2.00;;;0.90;;
38513;SDS011;24282;48.400;10.808;2023-07-22T12:12:38;1.23;;;1.00;;
38513;SDS011;24282;48.400;10.808;2023-07-22T12:15:14;1.13;;;0.90;;
38513;SDS011;24282;48.400;10.808;2023-07-22T12:20:24;0.90;;;0.70;;
38513;SDS011;24282;48.400;10.808;2023-07-22T12:22:51;0.88;;;0.73;;
38513;SDS011;24282;48.400;10.808;2023-07-22T12:25:17;1.48;;;0.70;;
38513;SDS011;24282;48.400;10.808;2023-07-22T12:27:43;1.30;;;0.80;;
38513;SDS011;24282;48.400;10.808;2023-07-22T12:30:09;1.60;;;0.93;;
38513;SDS011;24282;48.400;10.808;2023-07-22T12:32:35;1.63;;;1.00;;
38513;SDS011;24282;48.400;10.808;2023-07-22T12:35:01;1.10;;;0.98;;
38513;SDS011;24282;48.400;10.808;2023-07-22T12:37:28;0.77;;;0.70;;
38513;SDS011;24282;48.400;10.808;2023-07-22T12:39:55;1.00;;;0.73;;
38513;SDS011;24282;48.400;10.808;2023-07-22T12:42:21;1.60;;;0.90;;
38513;SDS011;24282;48.400;10.808;2023-07-22T12:44:47;1.73;;;1.30;;
38513;SDS011;24282;48.400;10.808;2023-07-22T12:47:13;1.58;;;1.00;;
38513;SDS011;24282;48.400;10.808;2023-07-22T12:49:38;3.03;;;1.88;;
38513;SDS011;24282;48.400;10.808;2023-07-22T12:52:04;1.73;;;1.30;;
38513;SDS011;24282;48.400;10.808;2023-07-22T12:54:34;1.77;;;1.15;;
38513;SDS011;24282;48.400;10.808;2023-07-22T12:57:03;1.33;;;1.10;;
38513;SDS011;24282;48.400;10.808;2023-07-22T12:59:29;1.73;;;1.27;;
38513;SDS011;24282;48.400;10.808;2023-07-22T13:01:55;1.00;;;0.90;;
38513;SDS011;24282;48.400;10.808;2023-07-22T13:04:23;1.58;;;1.00;;
38513;SDS011;24282;48.400;10.808;2023-07-22T13:06:49;1.17;;;0.90;;
38513;SDS011;24282;48.400;10.808;2023-07-22T13:09:17;1.58;;;1.00;;
38513;SDS011;24282;48.400;10.808;2023-07-22T13:11:43;2.35;;;0.90;;
38513;SDS011;24282;48.400;10.808;2023-07-22T13:14:09;1.00;;;0.88;;
38513;SDS011;24282;48.400;10.808;2023-07-22T13:16:34;1.17;;;0.90;;
38513;SDS011;24282;48.400;10.808;2023-07-22T13:19:00;1.10;;;0.90;;
38513;SDS011;24282;48.400;10.808;2023-07-22T13:21:28;1.13;;;1.00;;
38513;SDS011;24282;48.400;10.808;2023-07-22T13:23:54;1.35;;;0.80;;
38513;SDS011;24282;48.400;10.808;2023-07-22T13:26:20;1.20;;;0.90;;
38513;SDS011;24282;48.400;10.808;2023-07-22T13:28:46;1.33;;;1.10;;
38513;SDS011;24282;48.400;10.808;2023-07-22T13:31:11;1.17;;;0.80;;
38513;SDS011;24282;48.400;10.808;2023-07-22T13:33:37;1.25;;;0.93;;
38513;SDS011;24282;48.400;10.808;2023-07-22T13:36:03;1.35;;;1.10;;
38513;SDS011;24282;48.400;10.808;2023-07-22T13:38:29;0.88;;;0.70;;
38513;SDS011;24282;48.400;10.808;2023-07-22T13:40:55;1.33;;;0.85;;
38513;SDS011;24282;48.400;10.808;2023-07-22T13:43:20;0.85;;;0.60;;
38513;SDS011;24282;48.400;10.808;2023-07-22T13:45:46;1.42;;;0.80;;
38513;SDS011;24282;48.400;10.808;2023-07-22T13:48:12;1.35;;;0.98;;
38513;SDS011;24282;48.400;10.808;2023-07-22T13:50:38;1.30;;;0.90;;
38513;SDS011;24282;48.400;10.808;2023-07-22T13:53:03;1.15;;;0.85;;
38513;SDS011;24282;48.400;10.808;2023-07-22T13:55:29;1.00;;;0.80;;
38513;SDS011;24282;48.400;10.808;2023-07-22T13:57:55;2.55;;;1.08;;
38513;SDS011;24282;48.400;10.808;2023-07-22T14:00:20;1.48;;;0.90;;
38513;SDS011;24282;48.400;10.808;2023-07-22T14:02:47;0.77;;;0.63;;
38513;SDS011;24282;48.400;10.808;2023-07-22T14:05:13;1.00;;;0.73;;
38513;SDS011;24282;48.400;10.808;2023-07-22T14:07:39;0.98;;;0.88;;
38513;SDS011;24282;48.400;10.808;2023-07-22T14:10:05;1.17;;;1.00;;
38513;SDS011;24282;48.400;10.808;2023-07-22T14:12:31;1.52;;;1.00;;
38513;SDS011;24282;48.400;10.808;2023-07-22T14:14:57;1.40;;;1.00;;
38513;SDS011;24282;48.400;10.808;2023-07-22T14:17:22;1.42;;;0.80;;
38513;SDS011;24282;48.400;10.808;2023-07-22T14:19:48;1.15;;;0.93;;
38513;SDS011;24282;48.400;10.808;2023-07-22T14:22:14;1.10;;;0.70;;
38513;SDS011;24282;48.400;10.808;2023-07-22T14:24:40;3.50;;;0.90;;
38513;SDS011;24282;48.400;10.808;2023-07-22T14:27:05;1.27;;;1.00;;
38513;SDS011;24282;48.400;10.808;2023-07-22T14:29:32;1.25;;;0.95;;
38513;SDS011;24282;48.400;10.808;2023-07-22T14:31:57;1.55;;;1.10;;
38513;SDS011;24282;48.400;10.808;2023-07-22T14:34:23;2.20;;;1.00;;
38513;SDS011;24282;48.400;10.808;2023-07-22T14:36:49;1.42;;;0.90;;
38513;SDS011;24282;48.400;10.808;2023-07-22T14:39:15;1.50;;;1.08;;
38513;SDS011;24282;48.400;10.808;2023-07-22T14:41:41;1.38;;;0.98;;
38513;SDS011;24282;48.400;10.808;2023-07-22T14:44:08;1.20;;;0.80;;
38513;SDS011;24282;48.400;10.808;2023-07-22T14:46:34;1.10;;;0.93;;
38513;SDS011;24282;48.400;10.808;2023-07-22T14:49:00;1.38;;;1.00;;
38513;SDS011;24282;48.400;10.808;2023-07-22T14:51:26;1.88;;;1.30;;
38513;SDS011;24282;48.400;10.808;2023-07-22T14:53:52;2.05;;;1.00;;
38513;SDS011;24282;48.400;10.808;2023-07-22T14:56:17;1.33;;;0.93;;
38513;SDS011;24282;48.400;10.808;2023-07-22T14:58:43;1.45;;;1.00;;
38513;SDS011;24282;48.400;10.808;2023-07-22T15:01:09;1.20;;;1.10;;
38513;SDS011;24282;48.400;10.808;2023-07-22T15:03:36;1.02;;;0.82;;